createdAt,value
2019-05-05T00:01:34.465Z,42.90
2019-05-05T00:04:25.454Z,42.84
2019-05-05T00:06:57.837Z,42.84
2019-05-05T00:09:30.324Z,42.79
2019-05-05T00:12:25.169Z,42.61
2019-05-05T00:15:16.358Z,42.17
2019-05-05T00:17:49.398Z,42.29
2019-05-05T00:20:21.908Z,42.34
2019-05-05T00:22:54.611Z,42.58
2019-05-05T00:25:26.488Z,42.48
2019-05-05T00:27:58.878Z,42.62
2019-05-05T00:30:30.827Z,42.13
2019-05-05T00:33:05.535Z,41.97
2019-05-05T00:35:38.320Z,42.30
2019-05-05T00:38:11.469Z,42.30
2019-05-05T00:40:44.308Z,42.12
2019-05-05T00:43:16.881Z,42.58
2019-05-05T00:45:51.507Z,42.37
2019-05-05T00:48:36.524Z,42.45
2019-05-05T00:51:09.334Z,41.56
2019-05-05T00:53:41.898Z,42.18
2019-05-05T00:56:14.454Z,42.30
2019-05-05T00:58:51.899Z,42.05
2019-05-05T01:01:45.802Z,42.25
2019-05-05T01:04:20.656Z,42.30
2019-05-05T01:06:54.394Z,42.49
2019-05-05T01:09:30.006Z,42.52
2019-05-05T01:12:04.355Z,42.52
2019-05-05T01:14:37.336Z,42.33
2019-05-05T01:17:09.884Z,42.55
2019-05-05T01:19:41.983Z,42.11
2019-05-05T01:22:14.882Z,42.35
2019-05-05T01:24:46.907Z,42.37
2019-05-05T01:27:18.852Z,42.41
2019-05-05T01:29:50.854Z,42.00
2019-05-05T01:32:27.747Z,42.47
2019-05-05T01:34:58.697Z,42.44
2019-05-05T01:37:39.454Z,42.42
2019-05-05T01:40:24.836Z,42.40
2019-05-05T01:42:56.863Z,42.25
2019-05-05T01:45:29.322Z,42.23
2019-05-05T01:48:02.332Z,41.81
2019-05-05T01:50:35.047Z,42.71
2019-05-05T01:53:07.851Z,42.19
2019-05-05T01:55:40.665Z,42.65
2019-05-05T01:58:12.546Z,42.38
2019-05-05T02:00:45.245Z,42.42
2019-05-05T02:03:17.900Z,42.14
2019-05-05T02:05:50.322Z,42.02
2019-05-05T02:08:24.424Z,41.34
2019-05-05T02:10:57.096Z,41.96
2019-05-05T02:13:29.735Z,41.96
2019-05-05T02:16:00.730Z,42.40
2019-05-05T02:18:34.536Z,42.47
2019-05-05T02:21:08.862Z,42.39
2019-05-05T02:23:41.312Z,41.61
2019-05-05T02:26:15.294Z,42.19
2019-05-05T02:29:04.933Z,42.56
2019-05-05T02:31:55.613Z,42.57
2019-05-05T02:34:30.345Z,41.92
2019-05-05T02:37:05.263Z,41.92
2019-05-05T02:39:39.316Z,41.77
2019-05-05T02:42:10.837Z,41.77
2019-05-05T02:44:45.632Z,42.29
2019-05-05T02:47:41.584Z,41.87
2019-05-05T02:50:15.565Z,41.95
2019-05-05T02:52:46.681Z,41.95
2019-05-05T02:55:18.543Z,42.45
2019-05-05T02:57:50.843Z,42.25
2019-05-05T03:00:40.601Z,42.06
2019-05-05T03:03:13.472Z,42.32
2019-05-05T03:05:45.862Z,42.04
2019-05-05T03:08:18.586Z,42.04
2019-05-05T03:10:50.800Z,42.29
2019-05-05T03:13:24.306Z,42.29
2019-05-05T03:16:23.734Z,42.36
2019-05-05T03:18:55.855Z,42.46
2019-05-05T03:21:27.986Z,42.53
2019-05-05T03:24:00.330Z,42.45
2019-05-05T03:26:33.997Z,42.73
2019-05-05T03:29:09.509Z,42.75
2019-05-05T03:31:45.443Z,42.58
2019-05-05T03:34:16.635Z,42.18
2019-05-05T03:36:48.670Z,42.04
2019-05-05T03:39:25.592Z,42.09
2019-05-05T03:42:04.765Z,41.86
2019-05-05T03:44:45.538Z,41.82
2019-05-05T03:47:18.277Z,42.09
2019-05-05T03:49:50.844Z,42.09
2019-05-05T03:52:24.476Z,41.99
2019-05-05T03:54:57.312Z,42.20
2019-05-05T03:57:29.853Z,42.20
2019-05-05T04:00:04.315Z,42.15
2019-05-05T04:02:51.093Z,42.02
2019-05-05T04:05:42.088Z,42.02
2019-05-05T04:08:14.628Z,42.46
2019-05-05T04:10:46.871Z,41.88
2019-05-05T04:13:19.858Z,41.88
2019-05-05T04:16:10.779Z,41.87
2019-05-05T04:18:48.993Z,41.75
2019-05-05T04:21:31.333Z,41.78
2019-05-05T04:23:55.313Z,42.10
2019-05-05T04:26:27.878Z,42.09
2019-05-05T04:29:02.314Z,42.24
2019-05-05T04:31:35.797Z,42.32
2019-05-05T04:34:08.324Z,42.32
2019-05-05T04:36:40.865Z,42.10
2019-05-05T04:39:14.403Z,42.17
2019-05-05T04:41:46.864Z,41.91
2019-05-05T04:44:18.863Z,41.63
2019-05-05T04:46:54.568Z,42.34
2019-05-05T04:49:35.273Z,42.09
2019-05-05T04:52:10.772Z,42.11
2019-05-05T04:54:47.768Z,41.78
2019-05-05T04:57:19.288Z,42.23
2019-05-05T04:59:53.925Z,42.09
2019-05-05T05:02:44.741Z,41.99
2019-05-05T05:05:29.284Z,38.24
2019-05-05T05:08:03.265Z,37.58
2019-05-05T05:10:34.744Z,37.51
2019-05-05T05:13:06.830Z,35.92
2019-05-05T05:15:38.914Z,35.48
2019-05-05T05:18:15.741Z,34.88
2019-05-05T05:20:48.858Z,35.36
2019-05-05T05:23:20.831Z,34.41
2019-05-05T05:25:54.397Z,34.54
2019-05-05T05:28:26.837Z,33.77
2019-05-05T05:30:59.348Z,33.77
2019-05-05T05:33:31.871Z,34.30
2019-05-05T05:36:04.163Z,33.87
2019-05-05T05:38:37.388Z,34.29
2019-05-05T05:41:28.398Z,33.45
2019-05-05T05:44:19.581Z,33.19
2019-05-05T05:47:00.337Z,34.12
2019-05-05T05:49:39.560Z,34.12
2019-05-05T05:52:18.552Z,33.39
2019-05-05T05:54:44.963Z,33.40
2019-05-05T05:57:17.924Z,33.73
2019-05-05T05:59:50.337Z,33.79
2019-05-05T06:02:24.204Z,33.18
2019-05-05T06:04:56.865Z,33.32
2019-05-05T06:07:29.397Z,32.96
2019-05-05T06:10:04.101Z,33.79
2019-05-05T06:12:36.919Z,34.25
2019-05-05T06:15:09.391Z,35.18
2019-05-05T06:17:43.486Z,35.45
2019-05-05T06:20:14.761Z,35.62
2019-05-05T06:22:46.853Z,35.04
2019-05-05T06:25:19.624Z,38.92
2019-05-05T06:27:50.750Z,38.87
2019-05-05T06:30:24.401Z,38.43
2019-05-05T06:32:56.902Z,38.45
2019-05-05T06:35:45.833Z,38.57
2019-05-05T06:38:17.906Z,38.13
2019-05-05T06:41:11.909Z,38.58
2019-05-05T06:44:18.382Z,38.06
2019-05-05T06:47:19.089Z,37.62
2019-05-05T06:49:53.648Z,37.45
2019-05-05T06:52:25.897Z,38.15
2019-05-05T06:54:59.365Z,38.15
2019-05-05T06:57:31.899Z,37.77
2019-05-05T07:00:05.319Z,37.40
2019-05-05T07:02:38.024Z,37.52
2019-05-05T07:05:10.413Z,37.51
2019-05-05T07:07:43.592Z,37.23
2019-05-05T07:10:14.841Z,37.05
2019-05-05T07:12:47.455Z,37.15
2019-05-05T07:15:20.235Z,36.45
2019-05-05T07:17:53.566Z,37.47
2019-05-05T07:20:26.379Z,37.23
2019-05-05T07:23:02.380Z,37.23
2019-05-05T07:25:42.047Z,37.33
2019-05-05T07:28:05.919Z,37.73
2019-05-05T07:30:38.833Z,37.71
2019-05-05T07:33:11.291Z,37.70
2019-05-05T07:35:57.857Z,37.40
2019-05-05T07:38:25.897Z,38.44
2019-05-05T07:40:58.096Z,38.10
2019-05-05T07:43:30.479Z,37.10
2019-05-05T07:46:04.456Z,36.78
2019-05-05T07:48:36.893Z,38.26
2019-05-05T07:51:09.277Z,38.26
2019-05-05T07:53:44.035Z,37.54
2019-05-05T07:56:14.791Z,37.10
2019-05-05T07:58:46.892Z,37.84
2019-05-05T08:01:19.058Z,37.20
2019-05-05T08:03:51.328Z,37.55
2019-05-05T08:06:24.328Z,38.11
2019-05-05T08:08:56.836Z,37.73
2019-05-05T08:11:56.738Z,37.99
2019-05-05T08:14:27.489Z,37.88
2019-05-05T08:19:25.686Z,37.44
2019-05-05T08:21:56.730Z,37.47
2019-05-05T08:25:14.692Z,37.55
2019-05-05T08:27:59.643Z,37.22
2019-05-05T08:30:44.131Z,37.91
2019-05-05T08:33:16.907Z,37.91
2019-05-05T08:35:49.045Z,37.14
2019-05-05T08:38:21.539Z,37.71
2019-05-05T08:40:54.455Z,37.72
2019-05-05T08:43:36.332Z,38.02
2019-05-05T08:46:15.910Z,38.02
2019-05-05T08:48:48.326Z,37.76
2019-05-05T08:51:21.651Z,37.93
2019-05-05T08:53:54.605Z,38.23
2019-05-05T08:56:27.440Z,38.23
2019-05-05T08:59:00.702Z,37.39
2019-05-05T09:01:34.310Z,35.85
2019-05-05T09:04:06.831Z,37.51
2019-05-05T09:06:39.402Z,36.38
2019-05-05T09:09:14.262Z,37.06
2019-05-05T09:11:46.093Z,38.26
2019-05-05T09:14:19.330Z,38.83
2019-05-05T09:16:56.344Z,37.02
2019-05-05T09:19:29.351Z,38.21
2019-05-05T09:22:04.868Z,38.74
2019-05-05T09:24:44.541Z,38.74
2019-05-05T09:27:28.019Z,39.86
2019-05-05T09:29:58.807Z,40.41
2019-05-05T09:32:31.094Z,40.41
2019-05-05T09:35:04.745Z,39.78
2019-05-05T09:37:37.379Z,39.34
2019-05-05T09:40:10.027Z,39.92
2019-05-05T09:42:44.276Z,39.95
2019-05-05T09:45:16.832Z,40.40
2019-05-05T09:47:48.884Z,40.40
2019-05-05T09:50:23.742Z,39.59
2019-05-05T09:52:56.549Z,39.41
2019-05-05T09:55:29.071Z,40.14
2019-05-05T09:58:01.396Z,40.10
2019-05-05T10:00:37.595Z,39.56
2019-05-05T10:03:10.096Z,39.95
2019-05-05T10:05:43.303Z,39.95
2019-05-05T10:08:34.803Z,39.20
2019-05-05T10:11:06.447Z,39.12
2019-05-05T10:13:38.061Z,38.52
2019-05-05T10:16:09.770Z,38.56
2019-05-05T10:18:40.597Z,39.56
2019-05-05T10:21:13.808Z,38.92
2019-05-05T10:23:47.380Z,39.66
2019-05-05T10:26:19.302Z,39.34
2019-05-05T10:28:53.589Z,38.98
2019-05-05T10:31:25.346Z,39.28
2019-05-05T10:34:00.708Z,39.59
2019-05-05T10:36:33.639Z,39.40
2019-05-05T10:39:13.984Z,39.23
2019-05-05T10:41:45.771Z,39.06
2019-05-05T10:44:16.656Z,39.00
2019-05-05T10:46:48.584Z,39.24
2019-05-05T10:49:20.316Z,39.72
2019-05-05T10:51:51.820Z,39.72
2019-05-05T10:54:23.977Z,39.10
2019-05-05T10:56:55.737Z,39.13
2019-05-05T10:59:29.762Z,38.35
2019-05-05T11:02:00.498Z,39.18
2019-05-05T11:04:33.558Z,39.05
2019-05-05T11:07:04.535Z,39.05
2019-05-05T11:09:37.309Z,38.63
2019-05-05T11:12:08.922Z,38.81
2019-05-05T11:14:40.413Z,38.96
2019-05-05T11:17:14.218Z,37.29
2019-05-05T11:19:45.761Z,38.29
2019-05-05T11:22:19.940Z,38.45
2019-05-05T11:24:58.341Z,38.94
2019-05-05T11:27:25.299Z,38.96
2019-05-05T11:30:16.422Z,38.44
2019-05-05T11:33:06.069Z,38.08
2019-05-05T11:35:56.855Z,38.35
2019-05-05T11:38:29.300Z,38.52
2019-05-05T11:41:01.305Z,38.83
2019-05-05T11:43:33.824Z,38.95
2019-05-05T11:46:05.749Z,38.65
2019-05-05T11:48:36.447Z,38.76
2019-05-05T11:51:08.619Z,38.24
2019-05-05T11:53:40.705Z,38.71
2019-05-05T11:56:11.612Z,38.71
2019-05-05T11:58:44.231Z,37.71
2019-05-05T12:01:16.342Z,37.82
2019-05-05T12:03:48.257Z,37.82
2019-05-05T12:06:19.880Z,36.88
2019-05-05T12:08:51.809Z,34.87
2019-05-05T12:11:23.995Z,34.15
2019-05-05T12:13:56.038Z,34.30
2019-05-05T12:16:34.483Z,32.94
2019-05-05T12:19:10.703Z,33.99
2019-05-05T12:21:41.587Z,32.31
2019-05-05T12:24:22.061Z,33.14
2019-05-05T12:27:13.999Z,33.14
2019-05-05T12:29:50.072Z,30.99
2019-05-05T12:32:24.037Z,30.99
2019-05-05T12:34:55.374Z,30.83
2019-05-05T12:37:27.160Z,30.83
2019-05-05T12:39:58.817Z,30.93
2019-05-05T12:42:30.597Z,30.52
2019-05-05T12:45:05.487Z,31.64
2019-05-05T12:48:02.306Z,31.64
2019-05-05T12:50:34.064Z,33.29
2019-05-05T12:53:05.766Z,33.41
2019-05-05T12:55:41.322Z,32.37
2019-05-05T12:58:09.790Z,30.11
2019-05-05T13:00:43.561Z,31.53
2019-05-05T13:03:15.307Z,29.67
2019-05-05T13:05:46.850Z,33.25
2019-05-05T13:08:18.429Z,32.36
2019-05-05T13:10:50.260Z,33.25
2019-05-05T13:13:21.840Z,31.67
2019-05-05T13:15:53.712Z,30.55
2019-05-05T13:18:25.749Z,32.63
2019-05-05T13:21:09.359Z,34.04
2019-05-05T13:23:51.497Z,31.11
2019-05-05T13:26:29.486Z,30.27
2019-05-05T13:29:01.417Z,31.10
2019-05-05T13:31:33.772Z,31.07
2019-05-05T13:34:05.797Z,31.94
2019-05-05T13:36:37.638Z,30.74
2019-05-05T13:39:09.719Z,34.82
2019-05-05T13:41:40.481Z,37.01
2019-05-05T13:44:18.430Z,36.60
2019-05-05T13:46:50.048Z,35.61
2019-05-05T13:49:31.032Z,36.53
2019-05-05T13:52:04.878Z,37.08
2019-05-05T13:54:36.718Z,36.77
2019-05-05T13:57:07.519Z,36.80
2019-05-05T13:59:39.296Z,37.34
2019-05-05T14:02:10.870Z,37.13
2019-05-05T14:04:43.834Z,37.23
2019-05-05T14:07:15.869Z,37.24
2019-05-05T14:09:47.741Z,37.57
2019-05-05T14:12:19.452Z,37.29
2019-05-05T14:14:51.412Z,36.84
2019-05-05T14:17:23.128Z,37.67
2019-05-05T14:20:05.161Z,37.42
2019-05-05T14:22:28.414Z,37.44
2019-05-05T14:25:09.306Z,36.88
2019-05-05T14:27:40.847Z,37.03
2019-05-05T14:30:31.371Z,37.72
2019-05-05T14:33:03.763Z,37.16
2019-05-05T14:35:45.730Z,38.20
2019-05-05T14:38:23.588Z,37.69
2019-05-05T14:40:55.415Z,37.97
2019-05-05T14:43:27.062Z,38.24
2019-05-05T14:45:58.775Z,37.61
2019-05-05T14:48:30.333Z,37.42
2019-05-05T14:51:03.923Z,38.04
2019-05-05T14:53:36.765Z,37.99
2019-05-05T14:56:08.359Z,37.39
2019-05-05T14:58:41.295Z,37.96
2019-05-05T15:01:14.424Z,37.28
2019-05-05T15:03:46.573Z,37.60
2019-05-05T15:06:43.832Z,37.42
2019-05-05T15:09:33.495Z,37.50
2019-05-05T15:12:23.562Z,37.50
2019-05-05T15:14:55.304Z,37.76
2019-05-05T15:17:26.795Z,37.48
2019-05-05T15:19:58.747Z,38.27
2019-05-05T15:22:30.260Z,38.23
2019-05-05T15:25:04.054Z,38.25
2019-05-05T15:27:35.363Z,37.44
2019-05-05T15:30:08.294Z,37.44
2019-05-05T15:32:40.057Z,38.14
2019-05-05T15:35:11.771Z,37.54
2019-05-05T15:37:43.656Z,37.92
2019-05-05T15:40:14.479Z,38.29
2019-05-05T15:42:46.302Z,38.13
2019-05-05T15:45:18.778Z,37.53
2019-05-05T15:47:50.743Z,37.92
2019-05-05T15:50:22.408Z,38.42
2019-05-05T15:52:58.808Z,38.17
2019-05-05T15:55:30.621Z,38.16
2019-05-05T15:58:03.612Z,36.49
2019-05-05T16:00:34.471Z,36.49
2019-05-05T16:03:07.357Z,33.93
2019-05-05T16:05:39.802Z,33.69
2019-05-05T16:08:13.984Z,32.14
2019-05-05T16:10:46.537Z,31.71
2019-05-05T16:13:18.744Z,34.05
2019-05-05T16:16:08.396Z,33.04
2019-05-05T16:19:05.756Z,32.64
2019-05-05T16:21:47.378Z,30.68
2019-05-05T16:24:24.763Z,30.85
2019-05-05T16:26:59.786Z,31.34
2019-05-05T16:29:33.652Z,33.03
2019-05-05T16:32:17.899Z,32.12
2019-05-05T16:34:39.297Z,37.29
2019-05-05T16:37:11.301Z,36.78
2019-05-05T16:39:43.959Z,37.17
2019-05-05T16:42:15.752Z,36.05
2019-05-05T16:44:46.934Z,37.42
2019-05-05T16:47:18.789Z,37.31
2019-05-05T16:49:50.414Z,37.51
2019-05-05T16:52:28.559Z,37.38
2019-05-05T16:55:05.443Z,37.87
2019-05-05T16:57:37.314Z,37.95
2019-05-05T17:00:09.573Z,37.96
2019-05-05T17:02:41.303Z,38.14
2019-05-05T17:05:13.741Z,38.14
2019-05-05T17:07:45.582Z,38.13
2019-05-05T17:10:17.277Z,37.72
2019-05-05T17:12:49.835Z,37.72
2019-05-05T17:15:40.324Z,38.01
2019-05-05T17:18:35.193Z,36.95
2019-05-05T17:21:18.078Z,36.98
2019-05-05T17:23:51.035Z,36.98
2019-05-05T17:26:24.313Z,37.47
2019-05-05T17:28:56.907Z,37.89
2019-05-05T17:31:29.355Z,37.37
2019-05-05T17:34:54.312Z,38.23
2019-05-05T17:37:26.843Z,38.03
2019-05-05T17:40:41.117Z,37.18
2019-05-05T17:43:36.392Z,37.82
2019-05-05T17:46:27.674Z,38.47
2019-05-05T17:49:18.294Z,37.65
2019-05-05T17:52:00.241Z,35.75
2019-05-05T17:54:35.836Z,35.68
2019-05-05T17:57:36.466Z,38.58
2019-05-05T18:00:11.570Z,38.52
2019-05-05T18:02:54.855Z,37.18
2019-05-05T18:05:44.843Z,36.64
2019-05-05T18:08:39.073Z,37.56
2019-05-05T18:11:37.676Z,38.40
2019-05-05T18:14:19.824Z,37.68
2019-05-05T18:16:50.884Z,36.63
2019-05-05T18:19:24.758Z,37.46
2019-05-05T18:21:57.334Z,36.39
2019-05-05T18:24:29.921Z,36.05
2019-05-05T18:27:02.029Z,37.14
2019-05-05T18:29:34.876Z,35.29
2019-05-05T18:32:07.489Z,37.66
2019-05-05T18:34:40.082Z,37.33
2019-05-05T18:37:14.562Z,37.89
2019-05-05T18:39:50.055Z,37.63
2019-05-05T18:42:24.695Z,37.63
2019-05-05T18:45:00.460Z,37.13
2019-05-05T18:47:34.162Z,37.92
2019-05-05T18:50:06.911Z,38.05
2019-05-05T18:52:39.322Z,36.99
2019-05-05T18:55:20.362Z,37.95
2019-05-05T18:57:54.170Z,38.02
2019-05-05T19:00:46.439Z,38.01
2019-05-05T19:03:24.557Z,37.41
2019-05-05T19:05:59.954Z,37.88
2019-05-05T19:08:53.721Z,37.88
2019-05-05T19:11:17.601Z,38.11
2019-05-05T19:13:50.846Z,38.29
2019-05-05T19:16:23.833Z,38.29
2019-05-05T19:18:56.376Z,37.45
2019-05-05T19:21:34.043Z,38.35
2019-05-05T19:24:07.829Z,37.18
2019-05-05T19:26:39.840Z,38.30
2019-05-05T19:29:13.524Z,37.72
2019-05-05T19:31:46.270Z,38.75
2019-05-05T19:34:18.924Z,38.60
2019-05-05T19:36:51.554Z,38.50
2019-05-05T19:39:24.287Z,36.97
2019-05-05T19:41:56.938Z,38.43
2019-05-05T19:44:33.819Z,38.68
2019-05-05T19:47:16.447Z,37.84
2019-05-05T19:50:26.870Z,38.82
2019-05-05T19:52:58.920Z,38.24
2019-05-05T19:55:33.790Z,38.90
2019-05-05T19:58:06.030Z,37.50
2019-05-05T20:00:38.671Z,37.50
2019-05-05T20:03:10.911Z,38.45
2019-05-05T20:05:50.408Z,39.29
2019-05-05T20:08:39.854Z,38.44
2019-05-05T20:11:00.441Z,37.65
2019-05-05T20:13:32.136Z,39.13
2019-05-05T20:16:23.585Z,39.20
2019-05-05T20:18:55.966Z,39.00
2019-05-05T20:21:28.343Z,39.00
2019-05-05T20:24:00.877Z,39.35
2019-05-05T20:26:34.875Z,39.09
2019-05-05T20:29:13.959Z,39.53
2019-05-05T20:31:43.350Z,39.36
2019-05-05T20:34:37.567Z,39.31
2019-05-05T20:37:13.962Z,38.97
2019-05-05T20:39:46.838Z,38.97
2019-05-05T20:42:19.098Z,39.16
2019-05-05T20:44:54.279Z,39.63
2019-05-05T20:47:26.381Z,39.23
2019-05-05T20:49:59.067Z,39.21
2019-05-05T20:52:34.472Z,39.53
2019-05-05T20:55:07.341Z,37.81
2019-05-05T20:57:41.418Z,39.65
2019-05-05T21:00:16.720Z,38.32
2019-05-05T21:02:48.265Z,37.45
2019-05-05T21:05:20.917Z,39.09
2019-05-05T21:07:53.867Z,39.32
2019-05-05T21:10:26.340Z,39.38
2019-05-05T21:12:58.877Z,39.95
2019-05-05T21:15:33.758Z,38.72
2019-05-05T21:18:05.356Z,39.43
2019-05-05T21:20:38.024Z,39.66
2019-05-05T21:23:29.057Z,39.89
2019-05-05T21:26:08.331Z,39.88
2019-05-05T21:28:40.880Z,38.37
2019-05-05T21:31:14.478Z,39.50
2019-05-05T21:33:47.318Z,39.81
2019-05-05T21:36:20.340Z,39.87
2019-05-05T21:38:54.867Z,38.94
2019-05-05T21:41:26.888Z,39.83
2019-05-05T21:44:00.041Z,39.83
2019-05-05T21:46:34.671Z,39.52
2019-05-05T21:49:07.373Z,39.96
2019-05-05T21:51:58.518Z,39.96
2019-05-05T21:54:56.399Z,39.94
2019-05-05T21:57:50.707Z,39.46
2019-05-05T22:00:46.506Z,39.93
2019-05-05T22:03:24.962Z,39.86
2019-05-05T22:05:57.337Z,40.10
2019-05-05T22:08:29.922Z,40.04
2019-05-05T22:11:03.930Z,39.85
2019-05-05T22:13:36.785Z,39.92
2019-05-05T22:16:09.076Z,39.87
2019-05-05T22:18:41.329Z,39.71
2019-05-05T22:21:36.658Z,39.53
2019-05-05T22:24:20.011Z,40.15
2019-05-05T22:26:53.910Z,40.15
2019-05-05T22:29:25.406Z,40.20
2019-05-05T22:31:58.458Z,40.10
2019-05-05T22:34:30.871Z,40.24
2019-05-05T22:37:05.721Z,40.16
2019-05-05T22:39:36.992Z,40.03
2019-05-05T22:42:09.866Z,40.03
2019-05-05T22:44:41.855Z,39.38
2019-05-05T22:47:14.002Z,40.06
2019-05-05T22:49:46.851Z,40.02
2019-05-05T22:52:18.912Z,39.80
2019-05-05T22:54:51.411Z,40.13
2019-05-05T23:00:23.846Z,39.97
2019-05-05T23:02:49.556Z,39.26
2019-05-05T23:05:50.333Z,39.92
2019-05-05T23:08:24.326Z,39.92
2019-05-05T23:10:56.848Z,40.07
2019-05-05T23:13:28.902Z,40.34
2019-05-05T23:16:08.567Z,40.33
2019-05-05T23:18:40.863Z,40.06
2019-05-05T23:21:37.390Z,39.92
2019-05-05T23:24:28.722Z,40.03
2019-05-05T23:26:59.682Z,40.11
2019-05-05T23:29:31.283Z,40.38
2019-05-05T23:32:03.855Z,40.19
2019-05-05T23:34:36.326Z,40.08
2019-05-05T23:37:08.881Z,40.21
2019-05-05T23:39:41.032Z,40.13
2019-05-05T23:42:14.690Z,40.36
2019-05-05T23:44:46.557Z,40.42
2019-05-05T23:47:18.884Z,40.23
2019-05-05T23:49:50.927Z,40.23
2019-05-05T23:52:23.988Z,39.72
2019-05-05T23:54:56.556Z,39.49
2019-05-05T23:57:28.978Z,40.42
